sensor_id;sensor_type;location;lat;lon;timestamp;temperature;humidity
31038;DHT22;17702;47.590;7.666;2023-08-08T00:02:13;14.80;99.90
31038;DHT22;17702;47.590;7.666;2023-08-08T00:04:39;14.80;99.90
31038;DHT22;17702;47.590;7.666;2023-08-08T00:07:04;14.80;99.90
31038;DHT22;17702;47.590;7.666;2023-08-08T00:09:30;14.80;99.90
31038;DHT22;17702;47.590;7.666;2023-08-08T00:11:55;14.80;99.90
31038;DHT22;17702;47.590;7.666;2023-08-08T00:14:23;14.80;99.90
31038;DHT22;17702;47.590;7.666;2023-08-08T00:16:49;14.80;99.90
31038;DHT22;17702;47.590;7.666;2023-08-08T00:19:14;14.80;99.90
31038;DHT22;17702;47.590;7.666;2023-08-08T00:21:40;14.80;99.90
31038;DHT22;17702;47.590;7.666;2023-08-08T00:24:06;14.80;99.90
31038;DHT22;17702;47.590;7.666;2023-08-08T00:26:31;14.80;99.90
31038;DHT22;17702;47.590;7.666;2023-08-08T00:28:57;14.80;99.90
31038;DHT22;17702;47.590;7.666;2023-08-08T00:31:22;14.70;99.90
31038;DHT22;17702;47.590;7.666;2023-08-08T00:33:48;14.70;99.90
31038;DHT22;17702;47.590;7.666;2023-08-08T00:36:13;14.80;99.90
31038;DHT22;17702;47.590;7.666;2023-08-08T00:38:39;14.80;99.90
31038;DHT22;17702;47.590;7.666;2023-08-08T00:41:05;14.80;99.90
31038;DHT22;17702;47.590;7.666;2023-08-08T00:43:30;14.70;99.90
31038;DHT22;17702;47.590;7.666;2023-08-08T00:45:57;14.70;99.90
31038;DHT22;17702;47.590;7.666;2023-08-08T00:48:23;14.70;99.90
31038;DHT22;17702;47.590;7.666;2023-08-08T00:50:50;14.70;99.90
31038;DHT22;17702;47.590;7.666;2023-08-08T00:53:17;14.70;99.90
31038;DHT22;17702;47.590;7.666;2023-08-08T00:55:43;14.70;99.90
31038;DHT22;17702;47.590;7.666;2023-08-08T00:58:09;14.70;99.90
31038;DHT22;17702;47.590;7.666;2023-08-08T01:00:35;14.70;99.90
31038;DHT22;17702;47.590;7.666;2023-08-08T01:03:01;14.70;99.90
31038;DHT22;17702;47.590;7.666;2023-08-08T01:05:33;14.60;99.90
31038;DHT22;17702;47.590;7.666;2023-08-08T01:08:04;14.70;99.90
31038;DHT22;17702;47.590;7.666;2023-08-08T01:10:38;14.70;99.90
31038;DHT22;17702;47.590;7.666;2023-08-08T01:13:12;14.60;99.90
31038;DHT22;17702;47.590;7.666;2023-08-08T01:15:40;14.60;99.90
31038;DHT22;17702;47.590;7.666;2023-08-08T01:18:07;14.60;99.90
31038;DHT22;17702;47.590;7.666;2023-08-08T01:20:33;14.60;99.90
31038;DHT22;17702;47.590;7.666;2023-08-08T01:25:40;14.70;99.90
31038;DHT22;17702;47.590;7.666;2023-08-08T01:28:07;14.70;99.90
31038;DHT22;17702;47.590;7.666;2023-08-08T01:30:32;14.70;99.90
31038;DHT22;17702;47.590;7.666;2023-08-08T01:32:58;14.60;99.90
31038;DHT22;17702;47.590;7.666;2023-08-08T01:35:26;14.50;99.90
31038;DHT22;17702;47.590;7.666;2023-08-08T01:38:04;14.60;99.90
31038;DHT22;17702;47.590;7.666;2023-08-08T01:40:34;14.50;99.90
31038;DHT22;17702;47.590;7.666;2023-08-08T01:43:00;14.50;99.90
31038;DHT22;17702;47.590;7.666;2023-08-08T01:45:27;14.40;99.90
31038;DHT22;17702;47.590;7.666;2023-08-08T01:47:52;14.40;99.90
31038;DHT22;17702;47.590;7.666;2023-08-08T01:50:18;14.40;99.90
31038;DHT22;17702;47.590;7.666;2023-08-08T01:52:44;14.40;99.90
31038;DHT22;17702;47.590;7.666;2023-08-08T01:55:10;14.40;99.90
31038;DHT22;17702;47.590;7.666;2023-08-08T01:57:36;14.40;99.90
31038;DHT22;17702;47.590;7.666;2023-08-08T02:00:01;14.40;99.90
31038;DHT22;17702;47.590;7.666;2023-08-08T02:02:29;14.30;99.90
31038;DHT22;17702;47.590;7.666;2023-08-08T02:04:55;14.30;99.90
31038;DHT22;17702;47.590;7.666;2023-08-08T02:07:20;14.30;99.90
31038;DHT22;17702;47.590;7.666;2023-08-08T02:09:46;14.30;99.90
31038;DHT22;17702;47.590;7.666;2023-08-08T02:12:11;14.30;99.90
31038;DHT22;17702;47.590;7.666;2023-08-08T02:14:37;14.30;99.90
31038;DHT22;17702;47.590;7.666;2023-08-08T02:17:03;14.30;99.90
31038;DHT22;17702;47.590;7.666;2023-08-08T02:19:28;14.30;99.90
31038;DHT22;17702;47.590;7.666;2023-08-08T02:21:54;14.30;99.90
31038;DHT22;17702;47.590;7.666;2023-08-08T02:24:20;14.30;99.90
31038;DHT22;17702;47.590;7.666;2023-08-08T02:26:45;14.30;99.90
31038;DHT22;17702;47.590;7.666;2023-08-08T02:29:11;14.30;99.90
31038;DHT22;17702;47.590;7.666;2023-08-08T02:31:37;14.20;99.90
31038;DHT22;17702;47.590;7.666;2023-08-08T02:34:02;14.20;99.90
31038;DHT22;17702;47.590;7.666;2023-08-08T02:36:28;14.20;99.90
31038;DHT22;17702;47.590;7.666;2023-08-08T02:38:53;14.20;99.90
31038;DHT22;17702;47.590;7.666;2023-08-08T02:41:19;14.20;99.90
31038;DHT22;17702;47.590;7.666;2023-08-08T02:43:46;14.20;99.90
31038;DHT22;17702;47.590;7.666;2023-08-08T02:46:11;14.20;99.90
31038;DHT22;17702;47.590;7.666;2023-08-08T02:48:37;14.20;99.90
31038;DHT22;17702;47.590;7.666;2023-08-08T02:51:02;14.10;99.90
31038;DHT22;17702;47.590;7.666;2023-08-08T02:53:28;14.10;99.90
31038;DHT22;17702;47.590;7.666;2023-08-08T02:55:54;14.10;99.90
31038;DHT22;17702;47.590;7.666;2023-08-08T02:58:19;14.10;99.90
31038;DHT22;17702;47.590;7.666;2023-08-08T03:00:45;14.00;99.90
31038;DHT22;17702;47.590;7.666;2023-08-08T03:03:10;14.00;99.90
31038;DHT22;17702;47.590;7.666;2023-08-08T03:05:36;13.90;99.90
31038;DHT22;17702;47.590;7.666;2023-08-08T03:08:02;13.90;99.90
31038;DHT22;17702;47.590;7.666;2023-08-08T03:10:27;13.90;99.90
31038;DHT22;17702;47.590;7.666;2023-08-08T03:12:53;13.90;99.90
31038;DHT22;17702;47.590;7.666;2023-08-08T03:15:18;13.90;99.90
31038;DHT22;17702;47.590;7.666;2023-08-08T03:17:44;14.00;99.90
31038;DHT22;17702;47.590;7.666;2023-08-08T03:20:10;13.90;99.90
31038;DHT22;17702;47.590;7.666;2023-08-08T03:22:37;13.90;99.90
31038;DHT22;17702;47.590;7.666;2023-08-08T03:25:03;13.90;99.90
31038;DHT22;17702;47.590;7.666;2023-08-08T03:27:30;13.90;99.90
31038;DHT22;17702;47.590;7.666;2023-08-08T03:29:55;13.90;99.90
31038;DHT22;17702;47.590;7.666;2023-08-08T03:32:22;13.90;99.90
31038;DHT22;17702;47.590;7.666;2023-08-08T03:34:48;13.90;99.90
31038;DHT22;17702;47.590;7.666;2023-08-08T03:37:14;13.90;99.90
31038;DHT22;17702;47.590;7.666;2023-08-08T03:39:39;13.90;99.90
31038;DHT22;17702;47.590;7.666;2023-08-08T03:42:05;13.90;99.90
31038;DHT22;17702;47.590;7.666;2023-08-08T03:44:31;13.90;99.90
31038;DHT22;17702;47.590;7.666;2023-08-08T03:46:56;13.80;99.90
31038;DHT22;17702;47.590;7.666;2023-08-08T03:49:22;13.80;99.90
31038;DHT22;17702;47.590;7.666;2023-08-08T03:51:47;13.80;99.90
31038;DHT22;17702;47.590;7.666;2023-08-08T03:54:14;13.80;99.90
31038;DHT22;17702;47.590;7.666;2023-08-08T03:56:40;13.80;99.90
31038;DHT22;17702;47.590;7.666;2023-08-08T03:59:06;13.80;99.90
31038;DHT22;17702;47.590;7.666;2023-08-08T04:01:31;13.80;99.90
31038;DHT22;17702;47.590;7.666;2023-08-08T04:03:57;13.80;99.90
31038;DHT22;17702;47.590;7.666;2023-08-08T04:06:23;13.80;99.90
31038;DHT22;17702;47.590;7.666;2023-08-08T04:08:48;13.80;99.90
31038;DHT22;17702;47.590;7.666;2023-08-08T04:11:14;13.80;99.90
31038;DHT22;17702;47.590;7.666;2023-08-08T04:13:39;13.80;99.90
31038;DHT22;17702;47.590;7.666;2023-08-08T04:16:05;13.80;99.90
31038;DHT22;17702;47.590;7.666;2023-08-08T04:18:31;13.80;99.90
31038;DHT22;17702;47.590;7.666;2023-08-08T04:20:56;13.70;99.90
31038;DHT22;17702;47.590;7.666;2023-08-08T04:23:22;13.70;99.90
31038;DHT22;17702;47.590;7.666;2023-08-08T04:25:51;13.70;99.90
31038;DHT22;17702;47.590;7.666;2023-08-08T04:28:16;13.70;99.90
31038;DHT22;17702;47.590;7.666;2023-08-08T04:30:42;13.70;99.90
31038;DHT22;17702;47.590;7.666;2023-08-08T04:33:07;13.80;99.90
31038;DHT22;17702;47.590;7.666;2023-08-08T04:35:33;13.90;99.90
31038;DHT22;17702;47.590;7.666;2023-08-08T04:37:58;13.90;99.90
31038;DHT22;17702;47.590;7.666;2023-08-08T04:40:24;14.00;99.90
31038;DHT22;17702;47.590;7.666;2023-08-08T04:42:50;14.10;99.90
31038;DHT22;17702;47.590;7.666;2023-08-08T04:45:16;14.20;99.90
31038;DHT22;17702;47.590;7.666;2023-08-08T04:47:42;14.20;99.90
31038;DHT22;17702;47.590;7.666;2023-08-08T04:50:07;14.20;99.90
31038;DHT22;17702;47.590;7.666;2023-08-08T04:52:33;14.30;99.90
31038;DHT22;17702;47.590;7.666;2023-08-08T04:54:58;14.40;99.90
31038;DHT22;17702;47.590;7.666;2023-08-08T04:57:24;14.50;99.90
31038;DHT22;17702;47.590;7.666;2023-08-08T04:59:50;14.50;99.90
31038;DHT22;17702;47.590;7.666;2023-08-08T05:02:15;14.60;99.90
31038;DHT22;17702;47.590;7.666;2023-08-08T05:04:41;14.60;99.90
31038;DHT22;17702;47.590;7.666;2023-08-08T05:07:07;14.60;99.90
31038;DHT22;17702;47.590;7.666;2023-08-08T05:09:33;14.60;99.90
31038;DHT22;17702;47.590;7.666;2023-08-08T05:11:58;14.60;99.90
31038;DHT22;17702;47.590;7.666;2023-08-08T05:14:24;14.60;99.90
31038;DHT22;17702;47.590;7.666;2023-08-08T05:16:49;14.60;99.90
31038;DHT22;17702;47.590;7.666;2023-08-08T05:19:15;14.70;99.90
31038;DHT22;17702;47.590;7.666;2023-08-08T05:21:40;14.70;99.90
31038;DHT22;17702;47.590;7.666;2023-08-08T05:24:06;14.80;99.90
31038;DHT22;17702;47.590;7.666;2023-08-08T05:26:32;14.80;99.90
31038;DHT22;17702;47.590;7.666;2023-08-08T05:28:57;14.90;99.90
31038;DHT22;17702;47.590;7.666;2023-08-08T05:31:23;15.00;99.90
31038;DHT22;17702;47.590;7.666;2023-08-08T05:33:49;15.00;99.90
31038;DHT22;17702;47.590;7.666;2023-08-08T05:36:15;15.10;99.90
31038;DHT22;17702;47.590;7.666;2023-08-08T05:38:41;15.10;99.90
31038;DHT22;17702;47.590;7.666;2023-08-08T05:41:07;15.10;99.90
31038;DHT22;17702;47.590;7.666;2023-08-08T05:43:33;15.20;99.90
31038;DHT22;17702;47.590;7.666;2023-08-08T05:45:59;15.20;99.90
31038;DHT22;17702;47.590;7.666;2023-08-08T05:48:24;15.30;99.90
31038;DHT22;17702;47.590;7.666;2023-08-08T05:50:50;15.40;99.90
31038;DHT22;17702;47.590;7.666;2023-08-08T05:53:15;15.40;99.90
31038;DHT22;17702;47.590;7.666;2023-08-08T05:55:41;15.40;99.90
31038;DHT22;17702;47.590;7.666;2023-08-08T05:58:10;15.40;99.90
31038;DHT22;17702;47.590;7.666;2023-08-08T06:00:35;15.40;99.90
31038;DHT22;17702;47.590;7.666;2023-08-08T06:03:01;15.50;99.90
31038;DHT22;17702;47.590;7.666;2023-08-08T06:05:27;15.50;99.90
31038;DHT22;17702;47.590;7.666;2023-08-08T06:07:53;15.50;99.90
31038;DHT22;17702;47.590;7.666;2023-08-08T06:10:21;15.60;99.90
31038;DHT22;17702;47.590;7.666;2023-08-08T06:12:46;15.70;99.90
31038;DHT22;17702;47.590;7.666;2023-08-08T06:15:12;15.70;99.90
31038;DHT22;17702;47.590;7.666;2023-08-08T06:17:38;15.80;99.90
31038;DHT22;17702;47.590;7.666;2023-08-08T06:20:04;15.70;99.90
31038;DHT22;17702;47.590;7.666;2023-08-08T06:22:30;15.80;99.90
31038;DHT22;17702;47.590;7.666;2023-08-08T06:24:55;15.80;99.90
31038;DHT22;17702;47.590;7.666;2023-08-08T06:27:21;15.90;99.90
31038;DHT22;17702;47.590;7.666;2023-08-08T06:29:46;15.90;99.90
31038;DHT22;17702;47.590;7.666;2023-08-08T06:32:12;16.00;99.90
31038;DHT22;17702;47.590;7.666;2023-08-08T06:34:38;16.10;99.90
31038;DHT22;17702;47.590;7.666;2023-08-08T06:37:03;16.20;99.90
31038;DHT22;17702;47.590;7.666;2023-08-08T06:39:29;16.30;99.90
31038;DHT22;17702;47.590;7.666;2023-08-08T06:41:55;16.40;99.90
31038;DHT22;17702;47.590;7.666;2023-08-08T06:44:21;16.50;99.90
31038;DHT22;17702;47.590;7.666;2023-08-08T06:46:46;16.70;99.90
31038;DHT22;17702;47.590;7.666;2023-08-08T06:49:12;16.90;99.90
31038;DHT22;17702;47.590;7.666;2023-08-08T06:51:37;17.00;99.90
31038;DHT22;17702;47.590;7.666;2023-08-08T06:54:03;17.10;99.90
31038;DHT22;17702;47.590;7.666;2023-08-08T06:56:29;17.20;99.90
31038;DHT22;17702;47.590;7.666;2023-08-08T06:58:54;17.30;99.90
31038;DHT22;17702;47.590;7.666;2023-08-08T07:01:20;17.30;99.90
31038;DHT22;17702;47.590;7.666;2023-08-08T07:03:46;17.40;99.80
31038;DHT22;17702;47.590;7.666;2023-08-08T07:06:12;17.40;99.90
31038;DHT22;17702;47.590;7.666;2023-08-08T07:08:37;17.50;99.60
31038;DHT22;17702;47.590;7.666;2023-08-08T07:11:06;17.50;99.60
31038;DHT22;17702;47.590;7.666;2023-08-08T07:13:32;17.60;99.40
31038;DHT22;17702;47.590;7.666;2023-08-08T07:15:57;17.60;99.20
31038;DHT22;17702;47.590;7.666;2023-08-08T07:18:23;17.70;99.90
31038;DHT22;17702;47.590;7.666;2023-08-08T07:20:48;17.80;99.90
31038;DHT22;17702;47.590;7.666;2023-08-08T07:23:15;17.90;98.90
31038;DHT22;17702;47.590;7.666;2023-08-08T07:25:41;17.90;99.20
31038;DHT22;17702;47.590;7.666;2023-08-08T07:28:08;18.00;98.50
31038;DHT22;17702;47.590;7.666;2023-08-08T07:30:34;18.00;98.00
31038;DHT22;17702;47.590;7.666;2023-08-08T07:33:00;18.10;99.00
31038;DHT22;17702;47.590;7.666;2023-08-08T07:35:25;18.20;99.10
31038;DHT22;17702;47.590;7.666;2023-08-08T07:37:51;18.30;98.40
31038;DHT22;17702;47.590;7.666;2023-08-08T07:40:17;18.40;98.10
31038;DHT22;17702;47.590;7.666;2023-08-08T07:42:44;18.40;98.00
31038;DHT22;17702;47.590;7.666;2023-08-08T07:45:09;18.40;98.00
31038;DHT22;17702;47.590;7.666;2023-08-08T07:47:35;18.50;98.30
31038;DHT22;17702;47.590;7.666;2023-08-08T07:50:01;18.60;97.50
31038;DHT22;17702;47.590;7.666;2023-08-08T07:52:26;18.70;97.40
31038;DHT22;17702;47.590;7.666;2023-08-08T07:54:52;18.70;97.80
31038;DHT22;17702;47.590;7.666;2023-08-08T07:57:18;18.80;97.90
31038;DHT22;17702;47.590;7.666;2023-08-08T07:59:43;18.90;98.50
31038;DHT22;17702;47.590;7.666;2023-08-08T08:02:09;19.00;99.00
31038;DHT22;17702;47.590;7.666;2023-08-08T08:04:34;19.20;97.80
31038;DHT22;17702;47.590;7.666;2023-08-08T08:07:00;19.20;98.30
31038;DHT22;17702;47.590;7.666;2023-08-08T08:09:26;19.40;98.70
31038;DHT22;17702;47.590;7.666;2023-08-08T08:11:51;19.60;95.70
31038;DHT22;17702;47.590;7.666;2023-08-08T08:14:17;19.80;95.10
31038;DHT22;17702;47.590;7.666;2023-08-08T08:16:44;20.00;94.40
31038;DHT22;17702;47.590;7.666;2023-08-08T08:19:10;20.10;93.40
31038;DHT22;17702;47.590;7.666;2023-08-08T08:21:36;20.00;94.10
31038;DHT22;17702;47.590;7.666;2023-08-08T08:24:01;20.20;94.00
31038;DHT22;17702;47.590;7.666;2023-08-08T08:26:27;20.40;90.60
31038;DHT22;17702;47.590;7.666;2023-08-08T08:28:53;20.50;91.60
31038;DHT22;17702;47.590;7.666;2023-08-08T08:31:19;20.70;91.10
31038;DHT22;17702;47.590;7.666;2023-08-08T08:33:44;20.90;91.40
31038;DHT22;17702;47.590;7.666;2023-08-08T08:36:10;21.10;88.30
31038;DHT22;17702;47.590;7.666;2023-08-08T08:38:38;21.20;87.10
31038;DHT22;17702;47.590;7.666;2023-08-08T08:41:04;21.20;87.70
31038;DHT22;17702;47.590;7.666;2023-08-08T08:43:30;21.20;88.40
31038;DHT22;17702;47.590;7.666;2023-08-08T08:46:00;21.30;83.90
31038;DHT22;17702;47.590;7.666;2023-08-08T08:48:28;21.30;86.50
31038;DHT22;17702;47.590;7.666;2023-08-08T08:50:53;21.50;87.50
31038;DHT22;17702;47.590;7.666;2023-08-08T08:53:20;21.60;82.00
31038;DHT22;17702;47.590;7.666;2023-08-08T08:55:48;21.70;81.20
31038;DHT22;17702;47.590;7.666;2023-08-08T08:58:14;21.80;79.90
31038;DHT22;17702;47.590;7.666;2023-08-08T09:00:43;21.80;76.50
31038;DHT22;17702;47.590;7.666;2023-08-08T09:03:10;21.90;80.60
31038;DHT22;17702;47.590;7.666;2023-08-08T09:05:36;21.90;76.00
31038;DHT22;17702;47.590;7.666;2023-08-08T09:08:03;22.10;76.00
31038;DHT22;17702;47.590;7.666;2023-08-08T09:10:30;22.30;75.30
31038;DHT22;17702;47.590;7.666;2023-08-08T09:12:57;22.50;70.00
31038;DHT22;17702;47.590;7.666;2023-08-08T09:15:22;22.50;70.30
31038;DHT22;17702;47.590;7.666;2023-08-08T09:17:48;22.60;72.00
31038;DHT22;17702;47.590;7.666;2023-08-08T09:20:14;22.70;67.20
31038;DHT22;17702;47.590;7.666;2023-08-08T09:22:40;22.60;66.40
31038;DHT22;17702;47.590;7.666;2023-08-08T09:25:07;22.40;67.70
31038;DHT22;17702;47.590;7.666;2023-08-08T09:27:34;22.20;70.30
31038;DHT22;17702;47.590;7.666;2023-08-08T09:30:00;22.20;73.10
31038;DHT22;17702;47.590;7.666;2023-08-08T09:32:30;22.30;70.80
31038;DHT22;17702;47.590;7.666;2023-08-08T09:34:56;22.40;66.60
31038;DHT22;17702;47.590;7.666;2023-08-08T09:37:22;22.40;68.90
31038;DHT22;17702;47.590;7.666;2023-08-08T09:39:59;22.50;70.60
31038;DHT22;17702;47.590;7.666;2023-08-08T09:42:26;22.50;67.90
31038;DHT22;17702;47.590;7.666;2023-08-08T09:44:53;22.50;69.90
31038;DHT22;17702;47.590;7.666;2023-08-08T09:47:20;22.50;68.60
31038;DHT22;17702;47.590;7.666;2023-08-08T09:49:46;22.60;68.40
31038;DHT22;17702;47.590;7.666;2023-08-08T09:52:13;22.70;73.70
31038;DHT22;17702;47.590;7.666;2023-08-08T09:54:40;23.00;68.30
31038;DHT22;17702;47.590;7.666;2023-08-08T09:57:07;23.20;67.90
31038;DHT22;17702;47.590;7.666;2023-08-08T09:59:33;23.50;67.90
31038;DHT22;17702;47.590;7.666;2023-08-08T10:01:59;23.70;67.00
31038;DHT22;17702;47.590;7.666;2023-08-08T10:04:25;24.00;68.90
31038;DHT22;17702;47.590;7.666;2023-08-08T10:06:51;24.20;67.00
31038;DHT22;17702;47.590;7.666;2023-08-08T10:09:17;24.40;65.50
31038;DHT22;17702;47.590;7.666;2023-08-08T10:11:43;24.60;64.50
31038;DHT22;17702;47.590;7.666;2023-08-08T10:14:10;24.70;65.40
31038;DHT22;17702;47.590;7.666;2023-08-08T10:16:37;24.70;59.40
31038;DHT22;17702;47.590;7.666;2023-08-08T10:19:04;24.60;63.00
31038;DHT22;17702;47.590;7.666;2023-08-08T10:21:34;24.70;60.80
31038;DHT22;17702;47.590;7.666;2023-08-08T10:24:08;24.80;60.40
31038;DHT22;17702;47.590;7.666;2023-08-08T10:26:50;24.70;59.20
31038;DHT22;17702;47.590;7.666;2023-08-08T10:29:19;24.70;61.40
31038;DHT22;17702;47.590;7.666;2023-08-08T10:31:52;24.80;57.30
31038;DHT22;17702;47.590;7.666;2023-08-08T10:34:20;24.90;60.60
31038;DHT22;17702;47.590;7.666;2023-08-08T10:36:50;25.00;58.60
31038;DHT22;17702;47.590;7.666;2023-08-08T10:39:18;25.10;58.60
31038;DHT22;17702;47.590;7.666;2023-08-08T10:41:49;25.10;55.10
31038;DHT22;17702;47.590;7.666;2023-08-08T10:44:24;24.90;57.30
31038;DHT22;17702;47.590;7.666;2023-08-08T10:46:51;24.80;56.10
31038;DHT22;17702;47.590;7.666;2023-08-08T10:49:18;24.80;59.20
31038;DHT22;17702;47.590;7.666;2023-08-08T10:51:44;24.60;61.00
31038;DHT22;17702;47.590;7.666;2023-08-08T10:54:17;24.50;56.60
31038;DHT22;17702;47.590;7.666;2023-08-08T10:56:55;24.30;58.00
31038;DHT22;17702;47.590;7.666;2023-08-08T10:59:37;24.30;61.10
31038;DHT22;17702;47.590;7.666;2023-08-08T11:02:04;24.40;55.20
31038;DHT22;17702;47.590;7.666;2023-08-08T11:04:30;24.50;56.40
31038;DHT22;17702;47.590;7.666;2023-08-08T11:06:58;24.50;56.50
31038;DHT22;17702;47.590;7.666;2023-08-08T11:09:24;24.40;54.70
31038;DHT22;17702;47.590;7.666;2023-08-08T11:11:51;24.40;53.80
31038;DHT22;17702;47.590;7.666;2023-08-08T11:14:22;24.30;52.40
31038;DHT22;17702;47.590;7.666;2023-08-08T11:16:48;24.20;54.50
31038;DHT22;17702;47.590;7.666;2023-08-08T11:19:14;24.30;54.30
31038;DHT22;17702;47.590;7.666;2023-08-08T11:21:43;24.60;52.20
31038;DHT22;17702;47.590;7.666;2023-08-08T11:24:09;24.70;50.90
31038;DHT22;17702;47.590;7.666;2023-08-08T11:26:36;24.70;53.70
31038;DHT22;17702;47.590;7.666;2023-08-08T11:29:04;24.70;54.90
31038;DHT22;17702;47.590;7.666;2023-08-08T11:31:31;24.70;54.80
31038;DHT22;17702;47.590;7.666;2023-08-08T11:33:59;24.70;53.90
31038;DHT22;17702;47.590;7.666;2023-08-08T11:36:26;24.60;55.10
31038;DHT22;17702;47.590;7.666;2023-08-08T11:38:52;24.50;55.50
31038;DHT22;17702;47.590;7.666;2023-08-08T11:41:22;24.30;56.10
31038;DHT22;17702;47.590;7.666;2023-08-08T11:43:49;24.30;53.50
31038;DHT22;17702;47.590;7.666;2023-08-08T11:46:16;24.30;55.10
31038;DHT22;17702;47.590;7.666;2023-08-08T11:48:42;24.20;53.50
31038;DHT22;17702;47.590;7.666;2023-08-08T11:51:08;24.10;55.00
31038;DHT22;17702;47.590;7.666;2023-08-08T11:53:35;24.00;54.00
31038;DHT22;17702;47.590;7.666;2023-08-08T11:56:01;23.90;53.80
31038;DHT22;17702;47.590;7.666;2023-08-08T11:58:29;23.90;55.00
31038;DHT22;17702;47.590;7.666;2023-08-08T12:00:56;23.90;56.60
31038;DHT22;17702;47.590;7.666;2023-08-08T12:03:24;24.00;54.70
31038;DHT22;17702;47.590;7.666;2023-08-08T12:05:50;24.00;55.30
31038;DHT22;17702;47.590;7.666;2023-08-08T12:08:19;24.10;51.70
31038;DHT22;17702;47.590;7.666;2023-08-08T12:10:50;24.00;53.90
31038;DHT22;17702;47.590;7.666;2023-08-08T12:13:20;24.00;56.30
31038;DHT22;17702;47.590;7.666;2023-08-08T12:15:47;24.00;52.00
31038;DHT22;17702;47.590;7.666;2023-08-08T12:18:16;24.00;51.70
31038;DHT22;17702;47.590;7.666;2023-08-08T12:20:42;23.90;54.20
31038;DHT22;17702;47.590;7.666;2023-08-08T12:23:07;23.90;52.10
31038;DHT22;17702;47.590;7.666;2023-08-08T12:25:33;23.80;52.00
31038;DHT22;17702;47.590;7.666;2023-08-08T12:27:58;23.80;52.70
31038;DHT22;17702;47.590;7.666;2023-08-08T12:30:24;23.80;52.40
31038;DHT22;17702;47.590;7.666;2023-08-08T12:32:50;23.70;52.80
31038;DHT22;17702;47.590;7.666;2023-08-08T12:35:15;23.80;54.80
31038;DHT22;17702;47.590;7.666;2023-08-08T12:37:42;23.80;56.10
31038;DHT22;17702;47.590;7.666;2023-08-08T12:40:08;23.90;51.80
31038;DHT22;17702;47.590;7.666;2023-08-08T12:42:34;24.00;54.60
31038;DHT22;17702;47.590;7.666;2023-08-08T12:45:00;24.10;50.50
31038;DHT22;17702;47.590;7.666;2023-08-08T12:47:25;24.10;50.20
31038;DHT22;17702;47.590;7.666;2023-08-08T12:49:51;24.10;53.50
31038;DHT22;17702;47.590;7.666;2023-08-08T12:52:17;24.20;53.60
31038;DHT22;17702;47.590;7.666;2023-08-08T12:54:42;24.20;52.30
31038;DHT22;17702;47.590;7.666;2023-08-08T12:57:08;24.20;48.60
31038;DHT22;17702;47.590;7.666;2023-08-08T12:59:34;24.00;50.20
31038;DHT22;17702;47.590;7.666;2023-08-08T13:02:00;23.90;50.30
31038;DHT22;17702;47.590;7.666;2023-08-08T13:04:25;23.90;50.40
31038;DHT22;17702;47.590;7.666;2023-08-08T13:06:51;24.00;50.90
31038;DHT22;17702;47.590;7.666;2023-08-08T13:09:16;24.10;49.40
31038;DHT22;17702;47.590;7.666;2023-08-08T13:11:42;24.30;52.00
31038;DHT22;17702;47.590;7.666;2023-08-08T13:14:08;24.50;53.60
31038;DHT22;17702;47.590;7.666;2023-08-08T13:16:33;24.70;50.70
31038;DHT22;17702;47.590;7.666;2023-08-08T13:18:59;24.90;49.10
31038;DHT22;17702;47.590;7.666;2023-08-08T13:21:25;24.90;50.40
31038;DHT22;17702;47.590;7.666;2023-08-08T13:23:50;25.10;50.00
31038;DHT22;17702;47.590;7.666;2023-08-08T13:26:16;25.10;47.00
31038;DHT22;17702;47.590;7.666;2023-08-08T13:28:41;25.10;47.60
31038;DHT22;17702;47.590;7.666;2023-08-08T13:31:08;25.10;47.70
31038;DHT22;17702;47.590;7.666;2023-08-08T13:33:34;25.20;49.80
31038;DHT22;17702;47.590;7.666;2023-08-08T13:36:00;25.40;50.70
31038;DHT22;17702;47.590;7.666;2023-08-08T13:38:26;25.50;50.60
31038;DHT22;17702;47.590;7.666;2023-08-08T13:40:51;25.70;48.50
31038;DHT22;17702;47.590;7.666;2023-08-08T13:43:17;25.80;48.80
31038;DHT22;17702;47.590;7.666;2023-08-08T13:45:42;25.80;48.60
31038;DHT22;17702;47.590;7.666;2023-08-08T13:48:08;25.80;49.70
31038;DHT22;17702;47.590;7.666;2023-08-08T13:50:33;26.00;49.30
31038;DHT22;17702;47.590;7.666;2023-08-08T13:52:59;25.90;49.70
31038;DHT22;17702;47.590;7.666;2023-08-08T13:55:24;25.90;51.50
31038;DHT22;17702;47.590;7.666;2023-08-08T13:57:52;26.00;50.40
31038;DHT22;17702;47.590;7.666;2023-08-08T14:00:20;26.10;48.60
31038;DHT22;17702;47.590;7.666;2023-08-08T14:02:45;26.10;49.50
31038;DHT22;17702;47.590;7.666;2023-08-08T14:05:11;26.20;48.70
31038;DHT22;17702;47.590;7.666;2023-08-08T14:07:37;26.20;49.90
31038;DHT22;17702;47.590;7.666;2023-08-08T14:10:03;26.10;46.20
31038;DHT22;17702;47.590;7.666;2023-08-08T14:12:29;26.00;49.20
31038;DHT22;17702;47.590;7.666;2023-08-08T14:14:55;25.90;49.30
31038;DHT22;17702;47.590;7.666;2023-08-08T14:17:21;25.90;49.90
31038;DHT22;17702;47.590;7.666;2023-08-08T14:19:46;25.80;49.30
31038;DHT22;17702;47.590;7.666;2023-08-08T14:22:12;25.80;50.50
31038;DHT22;17702;47.590;7.666;2023-08-08T14:24:38;25.70;50.00
31038;DHT22;17702;47.590;7.666;2023-08-08T14:27:03;25.80;49.40
31038;DHT22;17702;47.590;7.666;2023-08-08T14:29:29;25.80;50.20
31038;DHT22;17702;47.590;7.666;2023-08-08T14:31:54;25.80;50.20
31038;DHT22;17702;47.590;7.666;2023-08-08T14:34:31;25.80;49.00
31038;DHT22;17702;47.590;7.666;2023-08-08T14:36:58;25.90;49.40
31038;DHT22;17702;47.590;7.666;2023-08-08T14:39:24;25.90;49.10
31038;DHT22;17702;47.590;7.666;2023-08-08T14:41:50;25.90;49.00
31038;DHT22;17702;47.590;7.666;2023-08-08T14:44:16;25.90;48.80
31038;DHT22;17702;47.590;7.666;2023-08-08T14:46:41;25.80;50.30
31038;DHT22;17702;47.590;7.666;2023-08-08T14:49:07;25.90;51.00
31038;DHT22;17702;47.590;7.666;2023-08-08T14:51:34;25.80;49.00
31038;DHT22;17702;47.590;7.666;2023-08-08T14:54:00;25.60;49.10
31038;DHT22;17702;47.590;7.666;2023-08-08T14:56:25;25.40;48.50
31038;DHT22;17702;47.590;7.666;2023-08-08T14:58:51;25.40;50.20
31038;DHT22;17702;47.590;7.666;2023-08-08T15:01:16;25.30;49.90
31038;DHT22;17702;47.590;7.666;2023-08-08T15:03:42;25.30;49.10
31038;DHT22;17702;47.590;7.666;2023-08-08T15:06:08;25.30;50.80
31038;DHT22;17702;47.590;7.666;2023-08-08T15:08:34;25.30;49.90
31038;DHT22;17702;47.590;7.666;2023-08-08T15:10:59;25.30;48.50
31038;DHT22;17702;47.590;7.666;2023-08-08T15:13:25;25.10;49.60
31038;DHT22;17702;47.590;7.666;2023-08-08T15:15:51;25.00;50.60
31038;DHT22;17702;47.590;7.666;2023-08-08T15:18:16;24.90;50.00
31038;DHT22;17702;47.590;7.666;2023-08-08T15:20:42;24.90;50.30
31038;DHT22;17702;47.590;7.666;2023-08-08T15:23:08;24.90;50.40
31038;DHT22;17702;47.590;7.666;2023-08-08T15:25:36;25.00;51.40
31038;DHT22;17702;47.590;7.666;2023-08-08T15:28:02;25.10;49.70